| time (UTC) | temp C | wind direction | speed KPH | gust KPH | rain 1hr cm | rain 24hr cm | rain mn cm | humidity % | barometer mb |
| 20260903111517 | 12 | 165 | 4.8 | 14.5 | 0.00 | 0.00 | 0.00 | 84 | 1010.3 |
| 20260903110011 | 13 | 184 | 9.7 | 17.7 | 0.00 | 0.00 | 0.00 | 85 | 1010.0 |
| 20260903104529 | 13 | 157 | 6.4 | 16.1 | 0.00 | 0.00 | 0.00 | 85 | 1010.0 |
| 20260903103031 | 13 | 163 | 4.8 | 14.5 | 0.00 | 0.00 | 0.00 | 86 | 1010.1 |
| 20260903101515 | 13 | 163 | 4.8 | 14.5 | 0.00 | 0.00 | 0.00 | 85 | 1010.1 |
| 20260903100003 | 13 | 192 | 6.4 | 16.1 | 0.00 | 0.00 | 0.00 | 85 | 1010.0 |
| 20260903094503 | 13 | 188 | 4.8 | 17.7 | 0.00 | 0.00 | 0.00 | 84 | 1009.9 |
| 20260903093002 | 13 | 63 | 4.8 | 17.7 | 0.00 | 0.00 | 0.00 | 84 | 1010.0 |
| 20260903091502 | 13 | 175 | 8.0 | 19.3 | 0.00 | 0.00 | 0.00 | 83 | 1009.8 |
| 20260903090003 | 13 | 168 | 6.4 | 17.7 | 0.00 | 0.00 | 0.00 | 82 | 1009.5 |
| 20260903084504 | 13 | 166 | 8.0 | 17.7 | 0.00 | 0.00 | 0.00 | 82 | 1009.3 |
| 20260903083005 | 13 | 177 | 6.4 | 17.7 | 0.00 | 0.00 | 0.00 | 81 | 1009.4 |
| 20260903081503 | 13 | 223 | 8.0 | 19.3 | 0.00 | 0.00 | 0.00 | 83 | 1009.2 |
| 20260903080003 | 13 | 183 | 4.8 | 16.1 | 0.00 | 0.00 | 0.00 | 84 | 1009.0 |
| 20260903074506 | 13 | 170 | 8.0 | 19.3 | 0.00 | 0.00 | 0.00 | 84 | 1009.0 |
| 20260903073004 | 13 | 275 | 8.0 | 16.1 | 0.00 | 0.00 | 0.00 | 85 | 1009.0 |
| 20260903071508 | 13 | 175 | 8.0 | 19.3 | 0.00 | 0.00 | 0.00 | 84 | 1009.1 |
| 20260903070014 | 13 | 161 | 8.0 | 19.3 | 0.00 | 0.00 | 0.00 | 83 | 1008.9 |
| 20260903064503 | 13 | 260 | 9.7 | 22.5 | 0.00 | 0.00 | 0.00 | 83 | 1008.7 |
| 20260903063005 | 13 | 194 | 9.7 | 27.4 | 0.00 | 0.00 | 0.00 | 82 | 1008.5 |
| 20260903061504 | 13 | 219 | 9.7 | 24.1 | 0.00 | 0.00 | 0.00 | 81 | 1008.6 |
| 20260903060013 | 14 | 134 | 12.9 | 25.7 | 0.00 | 0.00 | 0.00 | 78 | 1008.6 |
| 20260903054518 | 14 | 123 | 8.0 | 22.5 | 0.00 | 0.00 | 0.00 | 79 | 1008.7 |
| 20260903053003 | 15 | 163 | 9.7 | 24.1 | 0.00 | 0.00 | 0.00 | 80 | 1008.7 |
| 20260903051506 | 15 | 59 | 9.7 | 24.1 | 0.00 | 0.00 | 0.00 | 78 | 1008.7 |
| 20260903050004 | 15 | 196 | 8.0 | 27.4 | 0.00 | 0.00 | 0.00 | 76 | 1008.8 |
| 20260903044504 | 15 | 181 | 11.3 | 19.3 | 0.00 | 0.00 | 0.00 | 76 | 1008.6 |
| 20260903043022 | 15 | 153 | 8.0 | 17.7 | 0.00 | 0.00 | 0.00 | 78 | 1008.5 |
| 20260903041505 | 15 | 126 | 9.7 | 24.1 | 0.00 | 0.00 | 0.00 | 78 | 1008.5 |
| 20260903040004 | 15 | 206 | 8.0 | 20.9 | 0.00 | 0.00 | 0.00 | 78 | 1008.4 |
| 20260903034510 | 16 | 212 | 6.4 | 14.5 | 0.00 | 0.00 | 0.00 | 76 | 1008.5 |
| 20260903033014 | 16 | 175 | 6.4 | 19.3 | 0.00 | 0.00 | 0.00 | 75 | 1008.4 |
| 20260903031527 | 16 | 230 | 6.4 | 19.3 | 0.00 | 0.00 | 0.00 | 74 | 1008.4 |
| 20260903030009 | 16 | 196 | 8.0 | 16.1 | 0.00 | 0.00 | 0.00 | 73 | 1008.2 |
| 20260903024510 | 16 | 188 | 8.0 | 14.5 | 0.00 | 0.00 | 0.00 | 75 | 1008.0 |
| 20260903023015 | 16 | 130 | 4.8 | 16.1 | 0.00 | 0.00 | 0.00 | 72 | 1007.9 |
| 20260903021516 | 17 | 225 | 3.2 | 12.9 | 0.00 | 0.00 | 0.00 | 67 | 1008.2 |
| 20260903020029 | 17 | 177 | 4.8 | 19.3 | 0.00 | 0.00 | 0.00 | 64 | 1008.2 |
| 20260903014536 | 17 | 157 | 4.8 | 17.7 | 0.00 | 0.00 | 0.00 | 62 | 1008.0 |
| 20260903013013 | 17 | 256 | 3.2 | 19.3 | 0.00 | 0.00 | 0.00 | 61 | 1008.0 |
| 20260903011520 | 17 | 205 | 8.0 | 20.9 | 0.00 | 0.00 | 0.00 | 60 | 1007.8 |
| 20260903010029 | 18 | 225 | 6.4 | 19.3 | 0.00 | 0.00 | 0.00 | 58 | 1007.4 |
| 20260903004506 | 18 | 238 | 3.2 | 27.4 | 0.00 | 0.00 | 0.00 | 57 | 1007.4 |
| 20260903003003 | 18 | 190 | 3.2 | 17.7 | 0.00 | 0.00 | 0.00 | 58 | 1007.4 |
| 20260903001504 | 18 | 230 | 0.0 | 17.7 | 0.00 | 0.00 | 0.00 | 60 | 1007.5 |
| 20260903000003 | 18 | 292 | 6.4 | 24.1 | 0.00 | 0.00 | 0.00 | 55 | 1007.4 |
| 20260902234504 | 19 | 134 | 3.2 | 22.5 | 0.00 | 0.00 | 0.00 | 51 | 1007.4 |
| 20260902233004 | 20 | 202 | 3.2 | 16.1 | 0.00 | 0.00 | 0.00 | 50 | 1007.4 |
| 20260902231503 | 20 | 224 | 3.2 | 11.3 | 0.00 | 0.00 | 0.00 | 53 | 1007.4 |
| 20260902230003 | 18 | 186 | 0.0 | 9.7 | 0.00 | 0.00 | 0.00 | 59 | 1007.4 |
| 20260902224504 | 18 | 188 | 3.2 | 16.1 | 0.00 | 0.00 | 0.00 | 61 | 1007.5 |
| 20260902223007 | 21 | 184 | 3.2 | 22.5 | 0.00 | 0.00 | 0.00 | 55 | 1007.3 |
| 20260902221508 | 23 | 187 | 0.0 | 6.4 | 0.00 | 0.00 | 0.00 | 42 | 1006.8 |
| 20260902220006 | 23 | 99 | 0.0 | 1.6 | 0.00 | 0.00 | 0.00 | 45 | 1006.7 |
| 20260902214509 | 23 | 99 | 0.0 | 3.2 | 0.00 | 0.00 | 0.00 | 43 | 1006.8 |
| 20260902213006 | 23 | 80 | 0.0 | 1.6 | 0.00 | 0.00 | 0.00 | 44 | 1006.8 |
| 20260902211507 | 24 | 102 | 0.0 | 4.8 | 0.00 | 0.00 | 0.00 | 42 | 1006.7 |
| 20260902210008 | 24 | 124 | 3.2 | 14.5 | 0.00 | 0.00 | 0.00 | 41 | 1006.7 |
| 20260902204510 | 24 | 126 | 0.0 | 14.5 | 0.00 | 0.00 | 0.00 | 40 | 1006.9 |
| 20260902203007 | 23 | 163 | 0.0 | 0.0 | 0.00 | 0.00 | 0.00 | 42 | 1007.0 |
| 20260902201508 | 23 | 191 | 0.0 | 12.9 | 0.00 | 0.00 | 0.00 | 43 | 1007.3 |
| 20260902200010 | 23 | 223 | 0.0 | 9.7 | 0.00 | 0.00 | 0.00 | 39 | 1007.5 |
| 20260902194524 | 23 | 178 | 0.0 | 12.9 | 0.00 | 0.00 | 0.00 | 41 | 1007.8 |
| 20260902193014 | 23 | 132 | 1.6 | 11.3 | 0.00 | 0.00 | 0.00 | 42 | 1008.0 |
| 20260902191512 | 23 | 186 | 0.0 | 17.7 | 0.00 | 0.00 | 0.00 | 42 | 1008.2 |
| 20260902190013 | 22 | 253 | 3.2 | 14.5 | 0.00 | 0.00 | 0.00 | 42 | 1008.4 |
| 20260902184514 | 22 | 165 | 1.6 | 16.1 | 0.00 | 0.00 | 0.00 | 43 | 1008.5 |
| 20260902183011 | 22 | 158 | 6.4 | 16.1 | 0.00 | 0.00 | 0.00 | 43 | 1008.7 |
| 20260902181516 | 21 | 130 | 6.4 | 16.1 | 0.00 | 0.00 | 0.00 | 44 | 1008.7 |
| 20260902180014 | 20 | 157 | 0.0 | 11.3 | 0.00 | 0.00 | 0.00 | 50 | 1008.8 |
| 20260902174514 | 19 | 172 | 4.8 | 16.1 | 0.00 | 0.00 | 0.00 | 50 | 1008.9 |
| 20260902173024 | 19 | 162 | 4.8 | 22.5 | 0.00 | 0.00 | 0.00 | 50 | 1008.9 |
| 20260902171518 | 18 | 210 | 3.2 | 20.9 | 0.00 | 0.00 | 0.00 | 52 | 1008.9 |
| 20260902170020 | 18 | 147 | 8.0 | 22.5 | 0.00 | 0.00 | 0.00 | 52 | 1008.8 |
| 20260902164517 | 17 | 173 | 6.4 | 20.9 | 0.00 | 0.00 | 0.00 | 56 | 1008.8 |
| 20260902163018 | 17 | 194 | 6.4 | 17.7 | 0.00 | 0.00 | 0.00 | 60 | 1008.8 |
| 20260902161533 | 16 | 202 | 9.7 | 22.5 | 0.00 | 0.00 | 0.00 | 61 | 1008.8 |
| 20260902160024 | 16 | 166 | 6.4 | 17.7 | 0.00 | 0.00 | 0.00 | 65 | 1009.0 |
| 20260902154506 | 15 | 120 | 6.4 | 16.1 | 0.00 | 0.00 | 0.00 | 67 | 1009.1 |
| 20260902153003 | 15 | 200 | 9.7 | 20.9 | 0.00 | 0.00 | 0.00 | 68 | 1009.3 |
| 20260902151503 | 15 | 139 | 6.4 | 16.1 | 0.00 | 0.00 | 0.00 | 70 | 1009.2 |
| 20260902150003 | 14 | 197 | 8.0 | 16.1 | 0.00 | 0.00 | 0.00 | 71 | 1009.1 |
| 20260902144506 | 14 | 215 | 6.4 | 20.9 | 0.00 | 0.00 | 0.00 | 72 | 1008.9 |
| 20260902143003 | 14 | 196 | 11.3 | 29.0 | 0.00 | 0.00 | 0.00 | 72 | 1008.6 |
| 20260902141502 | 14 | 164 | 14.5 | 30.6 | 0.00 | 0.00 | 0.00 | 72 | 1008.2 |
| 20260902140011 | 13 | 180 | 11.3 | 29.0 | 0.00 | 0.00 | 0.00 | 72 | 1008.1 |
| 20260902134516 | 13 | 145 | 9.7 | 19.3 | 0.00 | 0.00 | 0.00 | 73 | 1008.3 |
| 20260902133014 | 13 | 102 | 9.7 | 25.7 | 0.00 | 0.00 | 0.00 | 72 | 1008.4 |
| 20260902131512 | 13 | 195 | 8.0 | 20.9 | 0.00 | 0.00 | 0.00 | 72 | 1008.1 |
| 20260902130004 | 13 | 177 | 6.4 | 22.5 | 0.00 | 0.00 | 0.00 | 73 | 1008.0 |
| 20260902124504 | 13 | 157 | 9.7 | 19.3 | 0.00 | 0.00 | 0.00 | 73 | 1007.9 |
| 20260902123006 | 13 | 204 | 11.3 | 27.4 | 0.00 | 0.00 | 0.00 | 73 | 1008.2 |
| 20260902121515 | 13 | 206 | 12.9 | 30.6 | 0.00 | 0.00 | 0.00 | 74 | 1007.9 |
| 20260902120023 | 14 | 217 | 8.0 | 19.3 | 0.00 | 0.00 | 0.00 | 73 | 1008.1 |
| 20260902114510 | 15 | 166 | 8.0 | 22.5 | 0.00 | 0.00 | 0.00 | 67 | 1008.1 |
| 20260902113008 | 15 | 161 | 8.0 | 30.6 | 0.00 | 0.00 | 0.00 | 66 | 1008.1 |